Time;durP1;ratioP1;P1;durP2;ratioP2;P2;SDS_P1;SDS_P2;PMS_P1;PMS_P2;Temp;Humidity;BMP_temperature;BMP_pressure;BME280_temperature;BME280_humidity;BME280_pressure;Samples;Min_cycle;Max_cycle;Signal;HPM_P1;HPM_P2
2022/09/19 00:01:10;;;;;;;;;;;9.40;99.90;;;;;;4997799;28;19932;-76
2022/09/19 00:03:37;;;;;;;;;;;9.40;99.90;;;;;;4996493;28;19933;-75
2022/09/19 00:06:05;;;;;;;;;;;9.40;99.90;;;;;;4996203;28;19925;-76
2022/09/19 00:08:32;;;;;;;;;;;9.40;99.90;;;;;;4997428;28;19933;-75
2022/09/19 00:11:01;;;;;;;;;;;9.40;99.90;;;;;;4996224;28;20017;-75
2022/09/19 00:13:27;;;;;;;;;;;9.50;99.90;;;;;;4999370;28;19936;-75
2022/09/19 00:15:54;;;;;;;;;;;9.50;99.90;;;;;;4996605;28;19932;-74
2022/09/19 00:18:21;;;;;;;;;;;9.60;99.90;;;;;;4998785;28;19925;-74
2022/09/19 00:20:49;;;;;;;;;;;9.60;99.90;;;;;;4996405;28;19929;-74
2022/09/19 00:26:02;;;;;;;;;;;9.70;99.90;;;;;;5002012;28;19933;-74
2022/09/19 00:28:28;;;;;;;;;;;9.70;99.90;;;;;;5004059;28;19932;-76
2022/09/19 00:30:55;;;;;;;;;;;9.70;99.90;;;;;;4996243;28;20009;-75
2022/09/19 00:33:22;;;;;;;;;;;9.70;99.90;;;;;;4999507;28;19926;-74
2022/09/19 00:35:54;;;;;;;;;;;9.80;99.90;;;;;;5000180;28;19930;-75
2022/09/19 00:38:22;;;;;;;;;;;9.80;99.90;;;;;;5001522;28;20028;-75
2022/09/19 00:40:49;;;;;;;;;;;9.80;99.90;;;;;;4994688;28;19929;-75
2022/09/19 00:43:17;;;;;;;;;;;9.70;99.90;;;;;;4998670;28;19934;-73
2022/09/19 00:45:43;;;;;;;;;;;9.60;99.90;;;;;;5000771;28;19929;-74
2022/09/19 00:48:11;;;;;;;;;;;9.60;99.90;;;;;;5001019;28;19933;-74
2022/09/19 00:50:39;;;;;;;;;;;9.50;99.90;;;;;;5000446;28;19925;-74
2022/09/19 00:53:09;;;;;;;;;;;9.50;99.90;;;;;;5000118;28;19988;-75
2022/09/19 00:55:38;;;;;;;;;;;9.50;99.90;;;;;;4998902;28;19925;-75
2022/09/19 00:58:08;;;;;;;;;;;9.50;99.90;;;;;;4998472;28;20374;-75
2022/09/19 01:00:35;;;;;;;;;;;9.50;99.90;;;;;;5001790;28;19932;-75
2022/09/19 01:03:01;;;;;;;;;;;9.50;99.90;;;;;;5003976;28;19925;-75
2022/09/19 01:05:33;;;;;;;;;;;9.50;99.90;;;;;;4998076;28;19929;-74
2022/09/19 01:08:07;;;;;;;;;;;9.50;99.90;;;;;;5002696;28;20446;-75
2022/09/19 01:10:40;;;;;;;;;;;9.60;99.90;;;;;;4998868;28;19926;-75
2022/09/19 01:13:12;;;;;;;;;;;9.60;99.90;;;;;;5004765;28;19936;-74
2022/09/19 01:15:44;;;;;;;;;;;9.60;99.90;;;;;;4998179;28;19961;-75
2022/09/19 01:18:11;;;;;;;;;;;9.60;99.90;;;;;;5006514;28;20352;-74
2022/09/19 01:20:57;;;;;;;;;;;9.60;99.90;;;;;;5003781;28;19937;-73
2022/09/19 01:23:36;;;;;;;;;;;9.70;99.90;;;;;;5006192;28;19931;-74
2022/09/19 01:26:11;;;;;;;;;;;9.70;99.90;;;;;;5001275;28;19925;-74
2022/09/19 01:28:40;;;;;;;;;;;9.60;99.90;;;;;;5009390;28;20345;-74
2022/09/19 01:31:18;;;;;;;;;;;9.60;99.90;;;;;;4997772;28;19930;-74
2022/09/19 01:33:47;;;;;;;;;;;9.60;99.90;;;;;;4997997;28;19926;-75
2022/09/19 01:36:15;;;;;;;;;;;9.50;99.90;;;;;;4992968;28;19933;-74
2022/09/19 01:38:42;;;;;;;;;;;9.50;99.90;;;;;;5001966;28;19926;-75
2022/09/19 01:41:12;;;;;;;;;;;9.40;99.90;;;;;;5003256;28;19932;-76
2022/09/19 01:43:40;;;;;;;;;;;9.30;99.90;;;;;;5005811;28;20393;-74
2022/09/19 01:46:10;;;;;;;;;;;9.30;99.90;;;;;;5001284;28;19932;-75
2022/09/19 01:48:43;;;;;;;;;;;9.20;99.90;;;;;;5009309;28;19925;-75
2022/09/19 01:51:19;;;;;;;;;;;9.20;99.90;;;;;;5005873;28;20377;-74
2022/09/19 01:53:51;;;;;;;;;;;9.20;99.90;;;;;;4996909;28;20397;-74
2022/09/19 01:56:23;;;;;;;;;;;9.20;99.90;;;;;;5000801;28;20388;-75
2022/09/19 01:58:57;;;;;;;;;;;9.20;99.90;;;;;;5005104;28;19925;-75
2022/09/19 02:01:27;;;;;;;;;;;9.20;99.90;;;;;;5002040;28;19929;-75
2022/09/19 02:03:56;;;;;;;;;;;9.10;99.90;;;;;;4999372;28;19933;-75
2022/09/19 02:06:28;;;;;;;;;;;9.10;99.90;;;;;;4997975;28;20013;-78
2022/09/19 02:08:59;;;;;;;;;;;9.10;99.90;;;;;;4996100;28;19926;-76
2022/09/19 02:11:27;;;;;;;;;;;9.10;99.90;;;;;;5004635;28;20380;-75
2022/09/19 02:13:57;;;;;;;;;;;9.10;99.90;;;;;;4990541;28;19937;-75
2022/09/19 02:16:25;;;;;;;;;;;9.10;99.90;;;;;;5001384;28;20031;-74
2022/09/19 02:18:54;;;;;;;;;;;9.10;99.90;;;;;;4998142;28;19939;-74
2022/09/19 02:21:25;;;;;;;;;;;9.00;99.90;;;;;;5000753;28;19925;-74
2022/09/19 02:23:53;;;;;;;;;;;9.00;99.90;;;;;;5007645;28;19926;-74
2022/09/19 02:26:22;;;;;;;;;;;8.90;99.90;;;;;;5002013;28;19925;-74
2022/09/19 02:28:54;;;;;;;;;;;8.90;99.90;;;;;;5004446;28;19926;-73
2022/09/19 02:31:24;;;;;;;;;;;8.90;99.90;;;;;;5005379;28;19926;-74
2022/09/19 02:33:51;;;;;;;;;;;8.90;99.90;;;;;;5004033;28;19960;-72
2022/09/19 02:36:20;;;;;;;;;;;9.00;99.90;;;;;;5002870;28;20149;-74
2022/09/19 02:38:50;;;;;;;;;;;9.00;99.90;;;;;;4997098;28;19926;-75
2022/09/19 02:41:21;;;;;;;;;;;9.10;99.90;;;;;;5002082;28;19930;-74
2022/09/19 02:43:52;;;;;;;;;;;9.10;99.90;;;;;;5006935;28;20288;-75
2022/09/19 02:46:22;;;;;;;;;;;9.10;99.90;;;;;;5000333;28;19926;-74
2022/09/19 02:48:53;;;;;;;;;;;9.10;99.90;;;;;;5005089;28;19925;-73
2022/09/19 02:51:22;;;;;;;;;;;9.10;99.90;;;;;;5003077;28;19936;-73
2022/09/19 02:53:52;;;;;;;;;;;9.10;99.90;;;;;;5003178;28;20297;-74
2022/09/19 02:56:21;;;;;;;;;;;9.10;99.90;;;;;;4999016;28;20403;-74
2022/09/19 02:58:49;;;;;;;;;;;9.10;99.90;;;;;;5000134;28;20277;-74
2022/09/19 03:01:19;;;;;;;;;;;9.10;99.90;;;;;;5002169;28;19925;-75
2022/09/19 03:06:37;;;;;;;;;;;9.10;99.90;;;;;;5005687;28;19972;-74
2022/09/19 03:09:05;;;;;;;;;;;9.10;99.90;;;;;;5002706;28;20404;-74
2022/09/19 03:11:33;;;;;;;;;;;9.00;99.90;;;;;;5012914;28;20003;-74
2022/09/19 03:14:00;;;;;;;;;;;9.00;99.90;;;;;;5010312;28;19929;-74
2022/09/19 03:16:28;;;;;;;;;;;9.00;99.90;;;;;;5009975;28;19926;-74
2022/09/19 03:18:56;;;;;;;;;;;9.00;99.90;;;;;;5006778;28;20296;-73
2022/09/19 03:21:24;;;;;;;;;;;9.10;99.90;;;;;;5011294;28;19979;-73
2022/09/19 03:23:53;;;;;;;;;;;9.10;99.90;;;;;;5011031;28;19943;-73
2022/09/19 03:26:21;;;;;;;;;;;9.10;99.90;;;;;;5005097;28;20177;-73
2022/09/19 03:28:48;;;;;;;;;;;9.10;99.90;;;;;;5006927;28;19932;-73
2022/09/19 03:31:16;;;;;;;;;;;9.10;99.90;;;;;;4999560;28;19926;-73
2022/09/19 03:33:42;;;;;;;;;;;9.10;99.90;;;;;;5004304;28;19980;-74
2022/09/19 03:36:09;;;;;;;;;;;9.00;99.90;;;;;;5005054;28;20040;-74
2022/09/19 03:38:37;;;;;;;;;;;8.90;99.90;;;;;;5005154;28;20009;-75
2022/09/19 03:41:05;;;;;;;;;;;8.90;99.90;;;;;;5006960;28;19939;-73
2022/09/19 03:43:31;;;;;;;;;;;8.80;99.90;;;;;;5001174;28;19932;-73
2022/09/19 03:45:58;;;;;;;;;;;8.80;99.90;;;;;;5005972;28;19925;-74
2022/09/19 03:48:26;;;;;;;;;;;8.70;99.90;;;;;;5002281;28;19926;-73
2022/09/19 03:50:53;;;;;;;;;;;8.70;99.90;;;;;;5005799;28;19925;-73
2022/09/19 03:53:19;;;;;;;;;;;8.60;99.90;;;;;;5006129;28;20009;-74
2022/09/19 03:55:46;;;;;;;;;;;8.60;99.90;;;;;;5005068;28;19973;-74
2022/09/19 03:58:14;;;;;;;;;;;8.60;99.90;;;;;;4994838;28;19941;-74
2022/09/19 04:00:41;;;;;;;;;;;8.50;99.90;;;;;;5000291;28;20004;-74
2022/09/19 04:03:07;;;;;;;;;;;8.50;99.90;;;;;;5002564;28;20021;-73
2022/09/19 04:05:34;;;;;;;;;;;8.50;99.90;;;;;;5001685;28;19973;-74
2022/09/19 04:08:01;;;;;;;;;;;8.50;99.90;;;;;;5000456;28;19933;-74
2022/09/19 04:10:27;;;;;;;;;;;8.40;99.90;;;;;;5001779;28;20194;-74
2022/09/19 04:12:56;;;;;;;;;;;8.40;99.90;;;;;;5006311;28;19945;-75
2022/09/19 04:15:24;;;;;;;;;;;8.40;99.90;;;;;;5002210;28;19937;-75
2022/09/19 04:17:50;;;;;;;;;;;8.30;99.90;;;;;;5003204;28;19929;-76
2022/09/19 04:20:17;;;;;;;;;;;8.30;99.90;;;;;;5003656;28;19925;-75
2022/09/19 04:22:44;;;;;;;;;;;8.30;99.90;;;;;;5010044;28;19925;-74
2022/09/19 04:25:12;;;;;;;;;;;8.30;99.90;;;;;;5005258;28;19996;-75
2022/09/19 04:27:39;;;;;;;;;;;8.20;99.90;;;;;;5007238;28;19948;-74
2022/09/19 04:30:06;;;;;;;;;;;8.20;99.90;;;;;;5004131;28;19929;-73
2022/09/19 04:32:34;;;;;;;;;;;8.10;99.90;;;;;;5006390;28;20260;-74
2022/09/19 04:35:01;;;;;;;;;;;8.10;99.90;;;;;;5001333;28;19933;-74
2022/09/19 04:37:29;;;;;;;;;;;8.10;99.90;;;;;;5006058;28;19932;-75
2022/09/19 04:39:56;;;;;;;;;;;8.10;99.90;;;;;;5005443;28;20179;-74
2022/09/19 04:42:22;;;;;;;;;;;8.10;99.90;;;;;;5007612;28;19931;-74
2022/09/19 04:44:49;;;;;;;;;;;8.10;99.90;;;;;;5002628;28;19944;-74
2022/09/19 04:47:15;;;;;;;;;;;8.10;99.90;;;;;;4997026;28;19933;-74
2022/09/19 04:49:43;;;;;;;;;;;8.10;99.90;;;;;;5000167;28;20380;-74
2022/09/19 04:52:12;;;;;;;;;;;8.10;99.90;;;;;;5007389;28;20076;-74
2022/09/19 04:54:38;;;;;;;;;;;8.00;99.90;;;;;;4997940;28;19983;-73
2022/09/19 04:57:06;;;;;;;;;;;8.10;99.90;;;;;;5002765;28;19938;-74
2022/09/19 04:59:33;;;;;;;;;;;8.10;99.90;;;;;;5005568;28;19926;-74
2022/09/19 05:02:01;;;;;;;;;;;8.10;99.90;;;;;;4997685;28;20489;-74
2022/09/19 05:04:28;;;;;;;;;;;8.10;99.90;;;;;;4999164;28;20400;-74
2022/09/19 05:06:56;;;;;;;;;;;8.10;99.90;;;;;;5001894;28;19940;-74
2022/09/19 05:09:23;;;;;;;;;;;8.10;99.90;;;;;;4994672;28;21032;-74
2022/09/19 05:11:49;;;;;;;;;;;8.10;99.90;;;;;;5007768;28;19929;-73
2022/09/19 05:14:17;;;;;;;;;;;8.10;99.90;;;;;;5007299;28;19936;-74
2022/09/19 05:16:44;;;;;;;;;;;8.10;99.90;;;;;;5006544;28;19926;-74
2022/09/19 05:19:12;;;;;;;;;;;8.10;99.90;;;;;;4999144;28;19933;-74
2022/09/19 05:21:38;;;;;;;;;;;8.10;99.90;;;;;;5001620;28;19929;-74
2022/09/19 05:24:07;;;;;;;;;;;8.10;99.90;;;;;;5003913;28;19929;-74
2022/09/19 05:26:33;;;;;;;;;;;8.20;99.90;;;;;;5002865;28;19930;-74
2022/09/19 05:29:00;;;;;;;;;;;8.30;99.90;;;;;;5000602;28;19929;-74
2022/09/19 05:31:27;;;;;;;;;;;8.40;99.90;;;;;;5002567;28;19956;-73
2022/09/19 05:33:53;;;;;;;;;;;8.40;99.90;;;;;;4999802;28;19925;-74
2022/09/19 05:36:20;;;;;;;;;;;8.40;99.90;;;;;;4999282;28;20670;-75
2022/09/19 05:38:48;;;;;;;;;;;8.40;99.90;;;;;;5004334;28;19925;-76
2022/09/19 05:41:16;;;;;;;;;;;8.40;99.90;;;;;;5002014;28;20344;-76
2022/09/19 05:43:43;;;;;;;;;;;8.40;99.90;;;;;;5011077;28;20016;-75
2022/09/19 05:46:10;;;;;;;;;;;8.30;99.90;;;;;;5003994;28;20181;-76
2022/09/19 05:48:37;;;;;;;;;;;8.30;99.90;;;;;;5004559;28;19969;-74
2022/09/19 05:51:04;;;;;;;;;;;8.40;99.90;;;;;;4995187;28;20025;-75
2022/09/19 05:56:16;;;;;;;;;;;8.50;99.90;;;;;;4992447;28;20164;-75
2022/09/19 05:58:43;;;;;;;;;;;8.60;99.90;;;;;;5001044;28;19932;-75
2022/09/19 06:01:10;;;;;;;;;;;8.60;99.90;;;;;;5001991;28;19964;-74
2022/09/19 06:03:38;;;;;;;;;;;8.70;99.90;;;;;;5005973;28;19948;-75
2022/09/19 06:06:08;;;;;;;;;;;8.80;99.90;;;;;;5000997;28;19934;-76
2022/09/19 06:08:34;;;;;;;;;;;8.80;99.90;;;;;;5004986;28;19933;-76
2022/09/19 06:11:02;;;;;;;;;;;8.90;99.90;;;;;;5004053;28;19925;-75
2022/09/19 06:16:10;;;;;;;;;;;9.10;99.90;;;;;;4994466;28;19937;-75
2022/09/19 06:18:37;;;;;;;;;;;9.20;99.90;;;;;;5004242;28;20009;-88
2022/09/19 06:21:04;;;;;;;;;;;9.30;99.90;;;;;;5005709;28;19937;-75
2022/09/19 06:23:31;;;;;;;;;;;9.40;99.90;;;;;;5001203;28;20316;-75
2022/09/19 06:25:57;;;;;;;;;;;9.50;99.90;;;;;;5003129;28;20285;-76
2022/09/19 06:28:24;;;;;;;;;;;9.60;99.90;;;;;;5007837;28;20307;-75
2022/09/19 06:30:53;;;;;;;;;;;9.70;99.90;;;;;;5002426;28;19925;-75
2022/09/19 06:33:19;;;;;;;;;;;9.80;99.90;;;;;;5000596;28;19995;-74
2022/09/19 06:35:47;;;;;;;;;;;10.00;99.90;;;;;;5013567;28;19932;-76
2022/09/19 06:38:14;;;;;;;;;;;10.10;99.90;;;;;;5004149;28;19937;-76
2022/09/19 06:40:43;;;;;;;;;;;10.10;99.90;;;;;;5002955;28;20032;-74
2022/09/19 06:43:10;;;;;;;;;;;10.10;99.90;;;;;;5008200;28;19930;-75
2022/09/19 06:45:40;;;;;;;;;;;10.10;99.90;;;;;;5002382;28;20381;-74
2022/09/19 06:48:09;;;;;;;;;;;10.10;99.90;;;;;;5013196;28;19980;-74
2022/09/19 06:50:35;;;;;;;;;;;10.20;99.90;;;;;;5018732;28;20142;-73
2022/09/19 06:53:02;;;;;;;;;;;10.10;99.90;;;;;;5010285;28;19936;-74
2022/09/19 06:55:30;;;;;;;;;;;10.20;99.90;;;;;;5009340;28;19925;-74
2022/09/19 06:57:58;;;;;;;;;;;10.20;99.90;;;;;;5006231;28;19933;-72
2022/09/19 07:00:26;;;;;;;;;;;10.30;99.90;;;;;;5005575;28;19934;-76
2022/09/19 07:02:54;;;;;;;;;;;10.40;99.90;;;;;;5007328;28;20387;-76
2022/09/19 07:05:22;;;;;;;;;;;10.50;99.90;;;;;;5000428;28;19925;-78
2022/09/19 07:07:51;;;;;;;;;;;10.60;99.90;;;;;;5000149;28;19941;-76
2022/09/19 07:10:19;;;;;;;;;;;10.70;99.90;;;;;;5010960;28;19925;-76
2022/09/19 07:12:51;;;;;;;;;;;10.90;99.90;;;;;;4996932;28;20550;-78
2022/09/19 07:15:18;;;;;;;;;;;11.00;99.90;;;;;;4998829;28;19983;-76
2022/09/19 07:17:44;;;;;;;;;;;11.20;99.90;;;;;;5006562;28;19925;-78
2022/09/19 07:20:11;;;;;;;;;;;11.40;99.90;;;;;;5004584;28;20020;-78
2022/09/19 07:22:39;;;;;;;;;;;11.70;99.90;;;;;;5014329;28;19925;-76
2022/09/19 07:25:08;;;;;;;;;;;12.20;99.90;;;;;;5006105;28;20017;-76
2022/09/19 07:27:34;;;;;;;;;;;13.20;99.90;;;;;;5007841;28;19929;-73
2022/09/19 07:30:01;;;;;;;;;;;15.40;99.90;;;;;;5004207;28;19952;-73
2022/09/19 07:32:28;;;;;;;;;;;16.00;99.90;;;;;;5003594;28;19925;-75
2022/09/19 07:34:55;;;;;;;;;;;15.40;99.90;;;;;;5006045;28;20273;-74
2022/09/19 07:37:21;;;;;;;;;;;14.90;99.90;;;;;;5006281;28;19932;-75
2022/09/19 07:39:49;;;;;;;;;;;14.40;99.90;;;;;;5003014;28;19925;-77
2022/09/19 07:42:16;;;;;;;;;;;14.00;99.90;;;;;;5004896;28;19925;-77
2022/09/19 07:44:42;;;;;;;;;;;13.60;99.90;;;;;;5007300;28;19935;-77
2022/09/19 07:47:28;;;;;;;;;;;13.20;99.90;;;;;;4999172;28;19930;-75
2022/09/19 07:49:55;;;;;;;;;;;13.00;99.90;;;;;;5002890;28;20016;-76
2022/09/19 07:52:22;;;;;;;;;;;12.80;99.90;;;;;;5003845;28;19961;-77
2022/09/19 07:54:50;;;;;;;;;;;12.60;99.90;;;;;;4998722;28;19926;-78
2022/09/19 07:57:17;;;;;;;;;;;12.60;99.90;;;;;;4997332;28;19925;-77
2022/09/19 07:59:44;;;;;;;;;;;12.40;99.90;;;;;;5003914;28;19930;-75
2022/09/19 08:02:11;;;;;;;;;;;12.30;99.90;;;;;;4998161;28;20007;-75
2022/09/19 08:04:38;;;;;;;;;;;12.30;99.90;;;;;;5002461;28;19980;-76
2022/09/19 08:07:05;;;;;;;;;;;12.30;99.90;;;;;;5001007;28;19932;-77
2022/09/19 08:09:32;;;;;;;;;;;12.30;99.90;;;;;;4996887;28;20038;-74
2022/09/19 08:12:02;;;;;;;;;;;12.30;99.90;;;;;;4997563;28;19926;-75
2022/09/19 08:14:29;;;;;;;;;;;12.40;99.90;;;;;;5000648;28;19932;-77
2022/09/19 08:16:55;;;;;;;;;;;12.50;99.90;;;;;;5007426;28;19926;-78
2022/09/19 08:19:22;;;;;;;;;;;12.60;99.90;;;;;;4995878;28;19933;-80
2022/09/19 08:21:50;;;;;;;;;;;12.60;99.90;;;;;;5001881;28;19948;-75
2022/09/19 08:24:17;;;;;;;;;;;12.70;99.90;;;;;;4996576;28;19926;-77
2022/09/19 08:26:44;;;;;;;;;;;12.80;99.90;;;;;;4997065;28;19925;-77
2022/09/19 08:29:13;;;;;;;;;;;12.90;99.90;;;;;;5000850;28;19951;-73
2022/09/19 08:31:39;;;;;;;;;;;13.00;99.90;;;;;;4994401;28;20300;-75
2022/09/19 08:34:06;;;;;;;;;;;13.20;99.90;;;;;;5007321;28;19940;-74
2022/09/19 08:36:33;;;;;;;;;;;13.40;99.90;;;;;;4996709;28;19935;-74
2022/09/19 08:39:00;;;;;;;;;;;13.50;99.90;;;;;;4994336;28;20385;-75
2022/09/19 08:41:35;;;;;;;;;;;13.80;99.90;;;;;;5004519;28;19984;-75
2022/09/19 08:44:08;;;;;;;;;;;14.10;99.90;;;;;;5001121;28;20025;-75
2022/09/19 08:46:42;;;;;;;;;;;14.30;99.90;;;;;;5001456;28;22175;-77
2022/09/19 08:49:10;;;;;;;;;;;14.20;99.90;;;;;;5000060;28;19926;-75
2022/09/19 08:51:46;;;;;;;;;;;14.20;99.90;;;;;;4995524;28;19925;-76
2022/09/19 08:54:16;;;;;;;;;;;14.20;99.90;;;;;;4996273;28;19936;-74
2022/09/19 08:56:43;;;;;;;;;;;14.30;99.90;;;;;;4993802;28;20024;-74
2022/09/19 08:59:11;;;;;;;;;;;14.40;99.90;;;;;;4996663;28;20032;-74
2022/09/19 09:01:40;;;;;;;;;;;14.40;99.90;;;;;;5001032;28;20012;-74
2022/09/19 09:04:15;;;;;;;;;;;14.50;99.90;;;;;;4997405;28;19926;-74
2022/09/19 09:06:47;;;;;;;;;;;14.70;99.90;;;;;;5003544;28;19926;-74
2022/09/19 09:09:22;;;;;;;;;;;15.00;99.90;;;;;;5003454;28;20280;-73
2022/09/19 09:11:53;;;;;;;;;;;15.20;99.90;;;;;;5004188;28;19933;-74
2022/09/19 09:14:26;;;;;;;;;;;15.40;99.90;;;;;;5003934;28;20308;-75
2022/09/19 09:16:59;;;;;;;;;;;15.60;99.90;;;;;;5007928;28;19925;-73
2022/09/19 09:19:36;;;;;;;;;;;16.00;99.90;;;;;;5003822;28;19933;-72
2022/09/19 09:22:06;;;;;;;;;;;15.90;99.90;;;;;;5004062;28;19936;-73
2022/09/19 09:24:35;;;;;;;;;;;16.00;99.90;;;;;;5015669;28;19949;-73
2022/09/19 09:27:04;;;;;;;;;;;16.20;99.90;;;;;;5009067;28;19980;-73
2022/09/19 09:29:33;;;;;;;;;;;16.40;99.90;;;;;;5004522;28;19928;-73
2022/09/19 09:32:02;;;;;;;;;;;16.30;99.90;;;;;;5003454;28;19926;-73
2022/09/19 09:34:31;;;;;;;;;;;16.20;99.90;;;;;;5006146;28;20044;-73
2022/09/19 09:37:00;;;;;;;;;;;16.20;99.90;;;;;;5007346;28;21543;-73
2022/09/19 09:39:28;;;;;;;;;;;16.10;99.90;;;;;;5004104;28;19926;-72
2022/09/19 09:41:57;;;;;;;;;;;16.10;99.90;;;;;;4998345;28;19926;-73
2022/09/19 09:44:44;;;;;;;;;;;16.10;99.90;;;;;;5005703;28;20323;-73
2022/09/19 09:47:19;;;;;;;;;;;16.40;99.90;;;;;;5006800;28;19925;-73
2022/09/19 09:49:46;;;;;;;;;;;16.70;99.90;;;;;;5004714;28;19969;-72
2022/09/19 09:52:20;;;;;;;;;;;17.10;99.90;;;;;;4999844;28;20396;-72
2022/09/19 09:57:39;;;;;;;;;;;18.60;99.90;;;;;;5007945;28;20446;-72
2022/09/19 10:05:45;;;;;;;;;;;20.30;91.60;;;;;;5010148;28;19932;-73
2022/09/19 10:08:16;;;;;;;;;;;20.60;92.40;;;;;;4995172;28;19932;-72
2022/09/19 10:10:43;;;;;;;;;;;19.90;91.60;;;;;;5005367;28;20005;-73
2022/09/19 10:13:14;;;;;;;;;;;19.30;93.30;;;;;;5004883;28;19930;-73
2022/09/19 10:15:41;;;;;;;;;;;18.90;94.30;;;;;;5007396;28;19925;-72
2022/09/19 10:18:13;;;;;;;;;;;18.60;95.10;;;;;;5006193;28;19938;-72
2022/09/19 10:20:48;;;;;;;;;;;18.20;96.50;;;;;;5009411;28;19925;-72
2022/09/19 10:23:19;;;;;;;;;;;17.60;97.80;;;;;;5009250;28;19976;-72
2022/09/19 10:25:47;;;;;;;;;;;17.30;99.50;;;;;;5006209;28;19979;-72
2022/09/19 10:28:18;;;;;;;;;;;17.20;99.90;;;;;;5010495;28;19926;-72
2022/09/19 10:30:50;;;;;;;;;;;17.00;99.90;;;;;;5003523;28;19926;-73
2022/09/19 10:33:25;;;;;;;;;;;16.80;99.90;;;;;;5007869;28;19925;-73
2022/09/19 10:35:54;;;;;;;;;;;16.80;99.90;;;;;;5007488;28;19926;-74
2022/09/19 10:38:21;;;;;;;;;;;16.90;99.90;;;;;;5008806;28;20325;-73
2022/09/19 10:40:54;;;;;;;;;;;17.20;99.90;;;;;;5004353;28;19972;-74
2022/09/19 10:43:22;;;;;;;;;;;17.40;99.90;;;;;;5007911;28;19925;-73
2022/09/19 10:45:49;;;;;;;;;;;17.30;99.90;;;;;;5008578;28;20396;-76
2022/09/19 10:48:17;;;;;;;;;;;17.20;99.90;;;;;;5010215;28;19926;-73
2022/09/19 10:50:47;;;;;;;;;;;17.10;99.90;;;;;;5004921;28;19926;-73
2022/09/19 10:53:17;;;;;;;;;;;16.80;99.90;;;;;;5006174;28;20430;-74
2022/09/19 10:55:45;;;;;;;;;;;16.70;99.90;;;;;;4994324;28;19932;-74
2022/09/19 10:58:16;;;;;;;;;;;16.80;99.90;;;;;;5004636;28;19925;-73
2022/09/19 11:00:49;;;;;;;;;;;16.70;99.90;;;;;;5007405;28;20401;-73
2022/09/19 11:03:23;;;;;;;;;;;16.60;99.90;;;;;;4999866;28;20009;-73
2022/09/19 11:06:04;;;;;;;;;;;16.60;99.90;;;;;;5010145;28;19926;-73
2022/09/19 11:08:31;;;;;;;;;;;16.70;99.90;;;;;;4994977;28;19978;-73
2022/09/19 11:11:02;;;;;;;;;;;16.50;99.90;;;;;;5008917;28;19925;-73
2022/09/19 11:13:29;;;;;;;;;;;16.40;99.90;;;;;;5006323;28;19926;-74
2022/09/19 11:16:08;;;;;;;;;;;16.50;99.90;;;;;;5004550;28;20036;-74
2022/09/19 11:18:50;;;;;;;;;;;16.70;99.90;;;;;;5006578;28;19925;-72
2022/09/19 11:21:28;;;;;;;;;;;16.90;99.90;;;;;;5002083;28;19932;-74
2022/09/19 11:24:00;;;;;;;;;;;16.70;99.90;;;;;;5012849;28;19961;-76
2022/09/19 11:26:32;;;;;;;;;;;16.50;99.90;;;;;;5007149;28;19925;-74
2022/09/19 11:29:06;;;;;;;;;;;16.90;99.90;;;;;;5003371;28;19925;-72
2022/09/19 11:31:41;;;;;;;;;;;17.30;98.70;;;;;;5010143;28;19936;-73
2022/09/19 11:34:12;;;;;;;;;;;17.60;97.80;;;;;;4999933;28;20393;-72
2022/09/19 11:36:48;;;;;;;;;;;17.60;96.90;;;;;;5009675;28;19929;-73
2022/09/19 11:39:16;;;;;;;;;;;17.60;97.70;;;;;;5009974;28;19929;-73
2022/09/19 11:41:49;;;;;;;;;;;17.60;97.50;;;;;;5006933;28;20012;-74
2022/09/19 11:44:24;;;;;;;;;;;17.30;97.70;;;;;;5010994;28;19976;-74
2022/09/19 11:46:57;;;;;;;;;;;17.50;98.50;;;;;;4995464;28;19932;-74
2022/09/19 11:49:38;;;;;;;;;;;17.70;97.90;;;;;;5007986;28;19934;-73
2022/09/19 11:52:11;;;;;;;;;;;17.70;97.20;;;;;;5009364;28;19926;-74
2022/09/19 11:54:46;;;;;;;;;;;17.40;97.80;;;;;;5014382;28;19929;-74
2022/09/19 11:57:17;;;;;;;;;;;17.00;98.80;;;;;;5011393;28;19937;-74
2022/09/19 11:59:52;;;;;;;;;;;16.80;99.40;;;;;;5011512;28;19930;-76
2022/09/19 12:02:31;;;;;;;;;;;16.50;99.70;;;;;;4998059;28;19932;-75
2022/09/19 12:05:03;;;;;;;;;;;16.20;99.90;;;;;;5009722;28;19965;-76
2022/09/19 12:07:35;;;;;;;;;;;15.90;99.90;;;;;;5012271;28;19933;-74
2022/09/19 12:10:07;;;;;;;;;;;16.00;99.90;;;;;;5004162;28;19930;-75
2022/09/19 12:12:37;;;;;;;;;;;16.00;99.90;;;;;;5002039;28;19929;-74
2022/09/19 12:15:14;;;;;;;;;;;16.00;99.90;;;;;;5003656;28;20020;-75
2022/09/19 12:17:42;;;;;;;;;;;16.00;99.90;;;;;;5004320;28;19925;-75
2022/09/19 12:20:16;;;;;;;;;;;16.00;99.90;;;;;;5012203;28;20036;-75
2022/09/19 12:22:48;;;;;;;;;;;16.10;99.90;;;;;;5013439;28;19932;-76
2022/09/19 12:25:18;;;;;;;;;;;16.20;99.90;;;;;;5001266;28;19926;-75
2022/09/19 12:27:48;;;;;;;;;;;16.50;99.90;;;;;;5012135;28;19926;-75
2022/09/19 12:30:15;;;;;;;;;;;16.60;99.90;;;;;;5009921;28;20649;-75
2022/09/19 12:32:47;;;;;;;;;;;16.80;99.90;;;;;;5001046;28;19965;-75
2022/09/19 12:35:19;;;;;;;;;;;16.70;99.70;;;;;;5007678;28;19933;-76
2022/09/19 12:37:54;;;;;;;;;;;16.80;98.50;;;;;;5004782;28;19931;-75
2022/09/19 12:40:26;;;;;;;;;;;16.80;98.90;;;;;;4998441;28;20005;-73
2022/09/19 12:42:55;;;;;;;;;;;17.00;98.30;;;;;;5003632;28;19925;-74
2022/09/19 12:45:23;;;;;;;;;;;17.10;96.90;;;;;;5009924;28;20002;-75
2022/09/19 12:48:02;;;;;;;;;;;17.30;96.20;;;;;;5016286;28;19964;-76
2022/09/19 12:50:31;;;;;;;;;;;17.50;95.80;;;;;;4998719;28;19973;-75
2022/09/19 12:53:06;;;;;;;;;;;17.50;93.90;;;;;;5000963;28;20409;-77
2022/09/19 12:55:38;;;;;;;;;;;17.50;92.80;;;;;;5005812;28;20345;-75
2022/09/19 12:58:09;;;;;;;;;;;17.40;92.20;;;;;;5003422;28;19926;-76
2022/09/19 13:00:42;;;;;;;;;;;17.60;92.20;;;;;;5009279;28;19949;-73
2022/09/19 13:03:14;;;;;;;;;;;17.80;91.90;;;;;;5002687;28;20427;-74
2022/09/19 13:05:45;;;;;;;;;;;18.10;90.80;;;;;;5009594;28;19933;-73
2022/09/19 13:08:14;;;;;;;;;;;18.40;90.30;;;;;;5007701;28;20422;-74
2022/09/19 13:10:45;;;;;;;;;;;18.30;86.60;;;;;;5003921;28;19933;-73
2022/09/19 13:13:14;;;;;;;;;;;18.10;86.80;;;;;;5010354;28;19935;-72
2022/09/19 13:15:44;;;;;;;;;;;17.90;86.90;;;;;;5009185;28;20396;-74
2022/09/19 13:23:44;;;;;;;;;;;18.00;88.40;;;;;;5005490;28;20299;-75
2022/09/19 13:26:24;;;;;;;;;;;18.10;87.40;;;;;;5003605;28;20387;-75
2022/09/19 13:28:52;;;;;;;;;;;18.20;86.90;;;;;;4992961;28;20016;-76
2022/09/19 13:31:20;;;;;;;;;;;18.20;86.90;;;;;;4996270;28;19937;-73
2022/09/19 13:33:50;;;;;;;;;;;17.80;85.80;;;;;;5005992;28;19926;-73
2022/09/19 13:36:30;;;;;;;;;;;17.30;86.40;;;;;;5007472;28;20381;-73
2022/09/19 13:38:58;;;;;;;;;;;17.20;88.60;;;;;;5003403;28;19926;-74
2022/09/19 13:41:27;;;;;;;;;;;17.50;90.10;;;;;;5006860;28;19984;-75
2022/09/19 13:44:01;;;;;;;;;;;17.70;88.30;;;;;;5000364;28;19926;-73
2022/09/19 13:46:30;;;;;;;;;;;17.80;87.40;;;;;;5005782;28;20348;-73
2022/09/19 13:49:00;;;;;;;;;;;17.60;85.40;;;;;;5003838;28;20316;-74
2022/09/19 13:51:31;;;;;;;;;;;17.30;82.30;;;;;;5010415;28;19925;-73
2022/09/19 13:54:16;;;;;;;;;;;17.10;84.30;;;;;;5010025;28;19925;-74
2022/09/19 13:56:47;;;;;;;;;;;17.20;93.30;;;;;;5008037;28;19932;-74
2022/09/19 13:59:19;;;;;;;;;;;17.20;92.20;;;;;;5007891;28;19929;-74
2022/09/19 14:01:57;;;;;;;;;;;17.20;92.00;;;;;;5007916;28;19925;-74
2022/09/19 14:07:16;;;;;;;;;;;17.40;91.70;;;;;;5004594;28;20412;-74
2022/09/19 14:09:44;;;;;;;;;;;17.60;91.70;;;;;;5008296;28;19925;-74
2022/09/19 14:12:30;;;;;;;;;;;17.90;91.50;;;;;;5006589;28;20385;-73
2022/09/19 14:14:58;;;;;;;;;;;18.80;90.70;;;;;;4995081;28;19944;-75
2022/09/19 14:17:30;;;;;;;;;;;18.50;87.80;;;;;;5000546;28;20020;-75
2022/09/19 14:20:01;;;;;;;;;;;18.60;78.40;;;;;;5002009;28;19926;-75
2022/09/19 14:22:44;;;;;;;;;;;18.40;80.70;;;;;;5007040;28;19925;-74
2022/09/19 14:25:20;;;;;;;;;;;18.20;81.10;;;;;;4998502;28;19941;-73
2022/09/19 14:28:01;;;;;;;;;;;17.60;80.50;;;;;;5005147;28;19968;-74
2022/09/19 14:30:49;;;;;;;;;;;18.00;83.30;;;;;;5001162;28;19926;-73
2022/09/19 14:33:26;;;;;;;;;;;17.40;83.80;;;;;;5009296;28;19925;-74
2022/09/19 14:35:56;;;;;;;;;;;17.00;80.30;;;;;;5006429;28;19926;-74
2022/09/19 14:38:41;;;;;;;;;;;17.00;79.30;;;;;;5001738;28;20020;-74
2022/09/19 14:41:10;;;;;;;;;;;17.00;80.10;;;;;;5005701;28;19926;-74
2022/09/19 14:43:58;;;;;;;;;;;17.20;80.00;;;;;;5005107;28;19936;-74
2022/09/19 14:46:27;;;;;;;;;;;17.70;79.80;;;;;;5004760;28;20733;-75
2022/09/19 14:48:59;;;;;;;;;;;17.90;76.80;;;;;;5010194;28;19930;-74
2022/09/19 14:51:37;;;;;;;;;;;18.00;78.40;;;;;;5007425;28;19931;-73
2022/09/19 14:54:08;;;;;;;;;;;17.90;79.10;;;;;;5007109;28;19932;-73
2022/09/19 14:56:34;;;;;;;;;;;17.80;77.90;;;;;;5008667;28;19960;-73
2022/09/19 14:59:02;;;;;;;;;;;17.80;78.30;;;;;;5003619;28;19947;-74
2022/09/19 15:01:30;;;;;;;;;;;17.90;77.10;;;;;;5012225;28;20380;-73
2022/09/19 15:03:59;;;;;;;;;;;18.00;74.30;;;;;;5005421;28;20021;-73
2022/09/19 15:06:29;;;;;;;;;;;17.60;72.90;;;;;;5006828;28;19932;-73